createdAt,value
2023-02-15T00:02:03.823Z,6.00
2023-02-15T00:04:47.397Z,6.06
2023-02-15T00:07:16.737Z,6.02
2023-02-15T00:09:46.512Z,5.92
2023-02-15T00:12:15.123Z,5.93
2023-02-15T00:14:43.258Z,5.89
2023-02-15T00:17:10.645Z,5.92
2023-02-15T00:19:40.045Z,5.93
2023-02-15T00:22:08.122Z,6.08
2023-02-15T00:24:35.884Z,6.15
2023-02-15T00:27:03.309Z,6.17
2023-02-15T00:29:30.844Z,6.29
2023-02-15T00:31:58.189Z,6.32
2023-02-15T00:34:29.489Z,6.11
2023-02-15T00:36:58.131Z,5.86
2023-02-15T00:39:25.534Z,5.84
2023-02-15T00:41:52.876Z,5.94
2023-02-15T00:44:20.168Z,5.83
2023-02-15T00:46:48.832Z,5.94
2023-02-15T00:49:16.119Z,5.93
2023-02-15T00:51:43.444Z,5.82
2023-02-15T00:54:10.762Z,5.84
2023-02-15T00:56:38.133Z,5.73
2023-02-15T00:59:05.505Z,5.61
2023-02-15T01:01:34.074Z,5.57
2023-02-15T01:04:02.596Z,5.65
2023-02-15T01:06:30.652Z,5.65
2023-02-15T01:08:58.000Z,5.64
2023-02-15T01:11:25.499Z,5.70
2023-02-15T01:13:55.754Z,5.67
2023-02-15T01:16:25.339Z,5.62
2023-02-15T01:18:52.712Z,5.45
2023-02-15T01:21:22.650Z,5.49
2023-02-15T01:23:50.410Z,5.53
2023-02-15T01:26:18.471Z,5.63
2023-02-15T01:28:46.460Z,5.66
2023-02-15T01:31:18.995Z,5.71
2023-02-15T01:33:49.427Z,5.61
2023-02-15T01:36:18.413Z,5.60
2023-02-15T01:38:46.390Z,5.37
2023-02-15T01:41:27.387Z,5.22
2023-02-15T01:43:57.798Z,5.23
2023-02-15T01:46:36.183Z,5.27
2023-02-15T01:49:16.173Z,5.26
2023-02-15T01:51:46.935Z,5.29
2023-02-15T01:54:22.817Z,5.33
2023-02-15T01:56:50.138Z,5.27
2023-02-15T01:59:21.449Z,5.22
2023-02-15T02:01:53.441Z,5.28
2023-02-15T02:04:36.631Z,5.25
2023-02-15T02:07:05.567Z,5.33
2023-02-15T02:09:33.334Z,5.29
2023-02-15T02:12:01.824Z,5.28
2023-02-15T02:14:29.813Z,5.19
2023-02-15T02:17:01.045Z,5.25
2023-02-15T02:20:06.004Z,5.37
2023-02-15T02:23:07.156Z,5.39
2023-02-15T02:26:01.286Z,5.46
2023-02-15T02:28:58.620Z,5.38
2023-02-15T02:31:47.716Z,5.34
2023-02-15T02:34:26.844Z,5.34
2023-02-15T02:37:03.854Z,5.39
2023-02-15T02:39:49.747Z,5.41
2023-02-15T02:42:24.870Z,5.36
2023-02-15T02:45:03.274Z,5.42
2023-02-15T02:47:33.652Z,5.39
2023-02-15T02:50:05.250Z,5.23
2023-02-15T02:52:53.088Z,5.21
2023-02-15T02:55:31.622Z,5.19
2023-02-15T02:58:02.756Z,5.14
2023-02-15T03:00:45.694Z,5.19
2023-02-15T03:03:21.298Z,5.24
2023-02-15T03:05:51.680Z,5.25
2023-02-15T03:08:23.161Z,5.25
2023-02-15T03:10:54.648Z,5.22
2023-02-15T03:13:24.539Z,5.16
2023-02-15T03:16:12.357Z,5.16
2023-02-15T03:18:53.608Z,5.12
2023-02-15T03:21:58.996Z,5.04
2023-02-15T03:24:33.120Z,5.05
2023-02-15T03:27:05.175Z,5.04
2023-02-15T03:29:32.967Z,5.01
2023-02-15T03:32:04.319Z,5.04
2023-02-15T03:34:32.042Z,5.01
2023-02-15T03:37:41.447Z,4.89
2023-02-15T03:40:33.525Z,4.92
2023-02-15T03:43:04.346Z,4.92
2023-02-15T03:45:34.210Z,4.96
2023-02-15T03:48:04.049Z,4.86
2023-02-15T03:50:52.480Z,4.91
2023-02-15T03:53:22.377Z,4.80
2023-02-15T03:55:54.356Z,4.80
2023-02-15T03:58:43.144Z,4.78
2023-02-15T04:01:53.337Z,4.79
2023-02-15T04:04:25.646Z,4.77
2023-02-15T04:06:53.112Z,4.77
2023-02-15T04:09:38.674Z,4.78
2023-02-15T04:12:06.136Z,4.76
2023-02-15T04:14:51.896Z,4.70
2023-02-15T04:17:19.317Z,4.86
2023-02-15T04:20:05.067Z,4.86
2023-02-15T04:22:50.902Z,4.93
2023-02-15T04:25:19.009Z,4.95
2023-02-15T04:27:50.041Z,4.87
2023-02-15T04:30:19.634Z,4.79
2023-02-15T04:32:48.501Z,4.72
2023-02-15T04:35:16.120Z,4.73
2023-02-15T04:37:44.347Z,4.72
2023-02-15T04:40:19.198Z,4.65
2023-02-15T04:42:50.247Z,4.50
2023-02-15T04:45:18.102Z,4.27
2023-02-15T04:47:47.285Z,4.01
2023-02-15T04:50:14.633Z,4.01
2023-02-15T04:52:41.980Z,4.08
2023-02-15T04:55:09.705Z,4.07
2023-02-15T04:57:37.153Z,4.12
2023-02-15T05:00:05.180Z,4.11
2023-02-15T05:02:32.526Z,3.98
2023-02-15T05:04:59.901Z,4.06
2023-02-15T05:07:27.261Z,4.03
2023-02-15T05:09:54.522Z,3.84
2023-02-15T05:12:21.943Z,3.90
2023-02-15T05:14:49.241Z,3.99
2023-02-15T05:17:16.556Z,3.98
2023-02-15T05:19:43.853Z,4.00
2023-02-15T05:22:11.185Z,3.97
2023-02-15T05:24:57.221Z,3.83
2023-02-15T05:27:42.886Z,3.95
2023-02-15T05:30:12.702Z,3.82
2023-02-15T05:32:40.381Z,3.90
2023-02-15T05:35:08.731Z,3.88
2023-02-15T05:37:36.073Z,3.88
2023-02-15T05:40:03.505Z,3.82
2023-02-15T05:42:31.854Z,3.80
2023-02-15T05:44:59.265Z,3.90
2023-02-15T05:47:26.605Z,3.97
2023-02-15T05:49:53.885Z,3.89
2023-02-15T05:52:24.156Z,4.06
2023-02-15T05:54:51.483Z,3.98
2023-02-15T05:57:18.784Z,4.06
2023-02-15T05:59:46.085Z,3.89
2023-02-15T06:02:14.089Z,3.85
2023-02-15T06:04:41.398Z,3.75
2023-02-15T06:07:08.825Z,3.74
2023-02-15T06:09:36.178Z,3.76
2023-02-15T06:12:03.814Z,3.67
2023-02-15T06:14:31.232Z,3.52
2023-02-15T06:16:58.779Z,3.60
2023-02-15T06:19:26.137Z,3.68
2023-02-15T06:21:53.489Z,3.73
2023-02-15T06:24:20.881Z,3.74
2023-02-15T06:26:48.246Z,3.81
2023-02-15T06:29:15.568Z,3.73
2023-02-15T06:31:43.153Z,3.78
2023-02-15T06:34:10.565Z,3.70
2023-02-15T06:36:37.983Z,3.52
2023-02-15T06:39:05.517Z,3.66
2023-02-15T06:41:33.048Z,3.76
2023-02-15T06:44:00.407Z,3.84
2023-02-15T06:46:28.044Z,4.04
2023-02-15T06:48:55.363Z,4.60
2023-02-15T06:51:22.715Z,5.41
2023-02-15T06:53:50.010Z,5.96
2023-02-15T06:56:17.490Z,6.57
2023-02-15T06:58:46.913Z,6.98
2023-02-15T07:01:14.404Z,7.00
2023-02-15T07:03:41.815Z,6.92
2023-02-15T07:06:10.481Z,6.88
2023-02-15T07:08:38.967Z,6.87
2023-02-15T07:11:26.695Z,6.87
2023-02-15T07:13:54.032Z,6.75
2023-02-15T07:16:21.859Z,7.26
2023-02-15T07:18:49.210Z,7.55
2023-02-15T07:21:16.591Z,7.33
2023-02-15T07:23:43.999Z,7.28
2023-02-15T07:26:13.730Z,7.32
2023-02-15T07:28:41.175Z,7.39
2023-02-15T07:31:08.694Z,7.64
2023-02-15T07:33:36.176Z,8.29
2023-02-15T07:36:05.209Z,8.84
2023-02-15T07:38:37.854Z,8.76
2023-02-15T07:41:12.080Z,9.20
2023-02-15T07:43:42.468Z,9.35
2023-02-15T07:46:16.148Z,9.50
2023-02-15T07:48:44.660Z,9.59
2023-02-15T07:51:13.108Z,10.56
2023-02-15T07:53:40.461Z,11.21
2023-02-15T07:56:12.782Z,11.96
2023-02-15T07:58:52.448Z,12.65
2023-02-15T08:01:28.234Z,12.97
2023-02-15T08:03:56.224Z,14.26
2023-02-15T08:06:27.960Z,14.94
2023-02-15T08:08:55.350Z,15.65
2023-02-15T08:11:38.601Z,15.20
2023-02-15T08:14:17.943Z,15.85
2023-02-15T08:16:49.617Z,15.39
2023-02-15T08:19:19.867Z,15.51
2023-02-15T08:21:57.824Z,15.10
2023-02-15T08:24:27.601Z,15.51
2023-02-15T08:26:55.225Z,16.39
2023-02-15T08:29:29.758Z,16.92
2023-02-15T08:32:03.895Z,16.94
2023-02-15T08:34:34.070Z,17.61
2023-02-15T08:37:01.956Z,17.79
2023-02-15T08:39:32.397Z,18.34
2023-02-15T08:41:59.720Z,18.85
2023-02-15T08:44:27.156Z,19.39
2023-02-15T08:46:55.678Z,19.42
2023-02-15T08:49:23.212Z,19.45
2023-02-15T08:51:53.538Z,19.94
2023-02-15T08:54:22.188Z,19.76
2023-02-15T08:56:49.686Z,19.86
2023-02-15T08:59:20.529Z,20.03
2023-02-15T09:01:50.016Z,19.92
2023-02-15T09:04:17.728Z,20.61
2023-02-15T09:06:48.601Z,20.67
2023-02-15T09:09:20.093Z,20.36
2023-02-15T09:11:52.098Z,20.79
2023-02-15T09:14:22.568Z,21.13
2023-02-15T09:16:51.974Z,21.55
2023-02-15T09:19:21.595Z,21.65
2023-02-15T09:21:49.449Z,21.96
2023-02-15T09:24:18.412Z,20.97
2023-02-15T09:26:48.084Z,21.59
2023-02-15T09:29:17.364Z,21.42
2023-02-15T09:31:47.232Z,22.20
2023-02-15T09:34:18.678Z,22.13
2023-02-15T09:36:47.544Z,21.43
2023-02-15T09:39:20.939Z,21.42
2023-02-15T09:42:23.045Z,21.68
2023-02-15T09:45:24.378Z,21.72
2023-02-15T09:48:30.596Z,22.32
2023-02-15T09:51:15.333Z,22.41
2023-02-15T09:54:01.923Z,22.03
2023-02-15T09:56:44.713Z,21.58
2023-02-15T09:59:21.521Z,22.08
2023-02-15T10:02:12.098Z,21.41
2023-02-15T10:04:57.928Z,21.25
2023-02-15T10:07:35.635Z,20.46
2023-02-15T10:10:26.329Z,20.57
2023-02-15T10:13:12.205Z,19.53
2023-02-15T10:16:32.379Z,20.05
2023-02-15T10:19:22.322Z,19.99
2023-02-15T10:22:15.507Z,19.15
2023-02-15T10:25:13.236Z,19.25
2023-02-15T10:27:47.630Z,18.96
2023-02-15T10:30:14.992Z,19.29
2023-02-15T10:33:02.470Z,19.30
2023-02-15T10:35:29.769Z,19.65
2023-02-15T10:38:20.106Z,19.71
2023-02-15T10:41:23.158Z,18.75
2023-02-15T10:44:07.378Z,18.72
2023-02-15T10:47:03.684Z,18.20
2023-02-15T10:49:47.052Z,18.36
2023-02-15T10:52:36.460Z,18.32
2023-02-15T10:55:15.795Z,17.76
2023-02-15T10:58:17.979Z,17.70
2023-02-15T11:01:14.056Z,17.19
2023-02-15T11:03:50.002Z,17.40
2023-02-15T11:06:20.979Z,17.42
2023-02-15T11:08:53.176Z,17.16
2023-02-15T11:11:25.480Z,17.49
2023-02-15T11:13:59.068Z,18.27
2023-02-15T11:16:35.098Z,18.90
2023-02-15T11:19:13.652Z,18.46
2023-02-15T11:21:46.665Z,18.17
2023-02-15T11:24:22.119Z,17.70
2023-02-15T11:27:17.795Z,17.10
2023-02-15T11:29:48.377Z,16.88
2023-02-15T11:32:26.040Z,17.21
2023-02-15T11:34:53.299Z,17.30
2023-02-15T11:37:29.596Z,17.34
2023-02-15T11:39:59.687Z,17.59
2023-02-15T11:42:31.094Z,17.47
2023-02-15T11:45:27.022Z,17.69
2023-02-15T11:47:55.609Z,17.63
2023-02-15T11:50:26.032Z,17.34
2023-02-15T11:52:59.254Z,17.40
2023-02-15T11:55:29.584Z,17.56
2023-02-15T11:58:36.708Z,17.12
2023-02-15T12:01:04.705Z,17.37
2023-02-15T12:03:58.727Z,17.80
2023-02-15T12:06:29.811Z,17.92
2023-02-15T12:09:06.498Z,18.16
2023-02-15T12:11:38.171Z,17.99
2023-02-15T12:14:16.820Z,18.03
2023-02-15T12:16:53.441Z,18.03
2023-02-15T12:19:33.864Z,18.05
2023-02-15T12:22:04.711Z,17.91
2023-02-15T12:24:37.884Z,18.18
2023-02-15T12:27:23.251Z,18.78
2023-02-15T12:29:54.669Z,18.85
2023-02-15T12:32:32.351Z,18.88
2023-02-15T12:35:13.752Z,18.81
2023-02-15T12:37:54.593Z,18.61
2023-02-15T12:40:26.878Z,18.91
2023-02-15T12:42:54.612Z,18.88
2023-02-15T12:45:33.620Z,18.95
2023-02-15T12:48:14.062Z,18.91
2023-02-15T12:50:43.257Z,18.70
2023-02-15T12:53:24.525Z,18.38
2023-02-15T12:56:00.855Z,18.38
2023-02-15T12:58:33.261Z,18.49
2023-02-15T13:01:09.660Z,18.46
2023-02-15T13:03:40.409Z,18.44
2023-02-15T13:06:09.006Z,18.27
2023-02-15T13:08:48.836Z,18.05
2023-02-15T13:11:23.809Z,18.21
2023-02-15T13:13:55.860Z,18.14
2023-02-15T13:16:32.198Z,18.21
2023-02-15T13:19:05.414Z,18.20
2023-02-15T13:21:40.655Z,18.20
2023-02-15T13:24:49.046Z,18.38
2023-02-15T13:27:20.654Z,18.30
2023-02-15T13:29:52.451Z,18.23
2023-02-15T13:32:29.816Z,18.23
2023-02-15T13:35:00.220Z,18.32
2023-02-15T13:37:48.790Z,18.13
2023-02-15T13:40:17.808Z,18.15
2023-02-15T13:42:52.535Z,18.11
2023-02-15T13:45:54.738Z,18.28
2023-02-15T13:48:51.260Z,18.05
2023-02-15T13:51:33.834Z,17.92
2023-02-15T13:54:17.947Z,17.98
2023-02-15T13:57:11.093Z,17.92
2023-02-15T13:59:54.577Z,17.99
2023-02-15T14:02:27.888Z,17.94
2023-02-15T14:05:45.171Z,17.86
2023-02-15T14:08:31.012Z,17.75
2023-02-15T14:11:18.471Z,17.62
2023-02-15T14:13:59.241Z,17.69
2023-02-15T14:17:06.342Z,17.72
2023-02-15T14:20:07.096Z,17.57
2023-02-15T14:22:44.043Z,17.46
2023-02-15T14:25:30.099Z,17.42
2023-02-15T14:28:12.015Z,17.23
2023-02-15T14:30:42.474Z,17.17
2023-02-15T14:33:21.358Z,17.12
2023-02-15T14:35:49.325Z,17.20
2023-02-15T14:38:24.652Z,17.18
2023-02-15T14:41:14.175Z,17.08
2023-02-15T14:44:13.160Z,17.13
2023-02-15T14:46:56.864Z,17.06
2023-02-15T14:49:26.185Z,17.17
2023-02-15T14:52:02.234Z,17.04
2023-02-15T14:54:31.317Z,17.11
2023-02-15T14:57:01.496Z,16.94
2023-02-15T14:59:44.078Z,16.91
2023-02-15T15:02:17.161Z,16.92
2023-02-15T15:04:57.486Z,16.93
2023-02-15T15:07:27.392Z,16.92
2023-02-15T15:10:26.919Z,16.80
2023-02-15T15:12:56.765Z,16.89
2023-02-15T15:15:32.890Z,16.79
2023-02-15T15:18:05.244Z,16.77
2023-02-15T15:20:43.781Z,16.69
2023-02-15T15:23:19.347Z,16.55
2023-02-15T15:25:57.320Z,16.58
2023-02-15T15:28:33.461Z,16.49
2023-02-15T15:31:18.205Z,16.46
2023-02-15T15:34:13.280Z,16.41
2023-02-15T15:36:59.264Z,16.56
2023-02-15T15:40:18.980Z,16.44
2023-02-15T15:43:09.143Z,16.23
2023-02-15T15:45:44.010Z,16.07
2023-02-15T15:48:31.568Z,15.94
2023-02-15T15:51:02.940Z,15.91
2023-02-15T15:53:38.517Z,15.96
2023-02-15T15:56:12.155Z,15.89
2023-02-15T15:58:45.293Z,15.83
2023-02-15T16:01:14.751Z,15.73
2023-02-15T16:03:53.223Z,15.62
2023-02-15T16:06:29.481Z,15.48
2023-02-15T16:08:57.093Z,15.35
2023-02-15T16:11:28.102Z,15.28
2023-02-15T16:13:56.127Z,15.19
2023-02-15T16:16:28.902Z,15.05
2023-02-15T16:19:00.412Z,14.92
2023-02-15T16:21:33.621Z,14.79
2023-02-15T16:24:28.466Z,14.74
2023-02-15T16:27:20.845Z,14.61
2023-02-15T16:29:48.512Z,14.59
2023-02-15T16:32:24.209Z,14.50
2023-02-15T16:34:53.808Z,14.42
2023-02-15T16:37:24.470Z,14.29
2023-02-15T16:39:51.846Z,14.11
2023-02-15T16:42:19.633Z,14.02
2023-02-15T16:45:02.616Z,13.91
2023-02-15T16:47:32.512Z,13.79
2023-02-15T16:50:03.526Z,13.70
2023-02-15T16:52:31.233Z,13.58
2023-02-15T16:55:00.862Z,13.49
2023-02-15T16:57:33.445Z,13.38
2023-02-15T17:00:17.936Z,13.33
2023-02-15T17:03:01.610Z,13.26
2023-02-15T17:05:33.307Z,13.16
2023-02-15T17:08:03.499Z,13.11
2023-02-15T17:10:37.145Z,13.04
2023-02-15T17:13:11.703Z,13.02
2023-02-15T17:16:06.079Z,12.97
2023-02-15T17:18:46.901Z,12.95
2023-02-15T17:21:25.593Z,12.92
2023-02-15T17:24:01.034Z,12.86
2023-02-15T17:26:34.070Z,12.75
2023-02-15T17:29:25.076Z,12.66
2023-02-15T17:31:55.171Z,12.65
2023-02-15T17:34:49.542Z,12.59
2023-02-15T17:37:30.173Z,12.51
2023-02-15T17:40:00.394Z,12.49
2023-02-15T17:42:28.210Z,12.36
2023-02-15T17:44:55.580Z,12.29
2023-02-15T17:47:27.650Z,12.22
2023-02-15T17:49:54.918Z,12.10
2023-02-15T17:52:22.301Z,11.97
2023-02-15T17:55:07.970Z,11.91
2023-02-15T17:57:35.356Z,11.79
2023-02-15T18:00:21.695Z,11.74
2023-02-15T18:03:07.462Z,11.75
2023-02-15T18:05:56.338Z,11.65
2023-02-15T18:08:46.270Z,11.58
2023-02-15T18:11:32.682Z,11.52
2023-02-15T18:14:03.371Z,11.48
2023-02-15T18:16:35.112Z,11.40
2023-02-15T18:19:04.871Z,11.40
2023-02-15T18:21:33.973Z,11.41
2023-02-15T18:24:01.478Z,11.38
2023-02-15T18:26:29.236Z,11.31
2023-02-15T18:28:56.651Z,11.20
2023-02-15T18:31:24.313Z,11.12
2023-02-15T18:33:58.093Z,11.00
2023-02-15T18:36:42.797Z,10.95
2023-02-15T18:39:37.004Z,10.87
2023-02-15T18:42:05.110Z,10.86
2023-02-15T18:44:32.612Z,10.80
2023-02-15T18:46:59.929Z,10.83
2023-02-15T18:49:27.404Z,10.79
2023-02-15T18:51:55.104Z,10.69
2023-02-15T18:54:24.713Z,10.67
2023-02-15T18:57:01.803Z,10.62
2023-02-15T18:59:31.214Z,10.54
2023-02-15T19:02:00.444Z,10.38
2023-02-15T19:04:27.891Z,10.30
2023-02-15T19:06:55.570Z,10.26
2023-02-15T19:09:24.650Z,10.21
2023-02-15T19:11:54.641Z,10.17
2023-02-15T19:14:30.836Z,10.18
2023-02-15T19:17:00.190Z,10.11
2023-02-15T19:19:27.886Z,10.07
2023-02-15T19:21:55.659Z,10.02
2023-02-15T19:24:32.009Z,9.98
2023-02-15T19:26:59.429Z,9.91
2023-02-15T19:29:30.480Z,9.93
2023-02-15T19:31:58.192Z,9.87
2023-02-15T19:34:25.677Z,9.80
2023-02-15T19:36:56.573Z,9.79
2023-02-15T19:39:37.024Z,9.83
2023-02-15T19:42:04.814Z,9.83
2023-02-15T19:44:32.334Z,9.81
2023-02-15T19:47:00.105Z,9.80
2023-02-15T19:49:27.512Z,9.74
2023-02-15T19:51:55.476Z,9.66
2023-02-15T19:54:35.219Z,9.67
2023-02-15T19:57:02.535Z,9.66
2023-02-15T19:59:33.030Z,9.56
2023-02-15T20:02:00.354Z,9.51
2023-02-15T20:04:27.805Z,9.47
2023-02-15T20:06:59.430Z,9.41
2023-02-15T20:09:31.863Z,9.37
2023-02-15T20:11:59.639Z,9.35
2023-02-15T20:14:27.769Z,9.33
2023-02-15T20:16:55.300Z,9.30
2023-02-15T20:19:25.302Z,9.29
2023-02-15T20:21:54.920Z,9.20
2023-02-15T20:24:26.119Z,9.23
2023-02-15T20:26:53.721Z,9.23
2023-02-15T20:29:22.590Z,9.21
2023-02-15T20:31:53.454Z,9.16
2023-02-15T20:34:22.808Z,9.10
2023-02-15T20:36:50.921Z,9.05
2023-02-15T20:39:20.564Z,8.97
2023-02-15T20:41:48.170Z,8.97
2023-02-15T20:44:27.675Z,8.90
2023-02-15T20:46:57.264Z,8.93
2023-02-15T20:49:26.388Z,8.90
2023-02-15T20:51:58.786Z,8.89
2023-02-15T20:54:29.883Z,8.83
2023-02-15T20:56:59.792Z,8.87
2023-02-15T20:59:32.497Z,8.78
2023-02-15T21:02:18.970Z,8.66
2023-02-15T21:04:46.802Z,8.67
2023-02-15T21:07:20.197Z,8.66
2023-02-15T21:09:48.115Z,8.64
2023-02-15T21:12:18.070Z,8.68
2023-02-15T21:14:46.045Z,8.67
2023-02-15T21:17:15.392Z,8.62
2023-02-15T21:19:43.462Z,8.56
2023-02-15T21:22:13.547Z,8.51
2023-02-15T21:24:47.835Z,8.48
2023-02-15T21:27:16.100Z,8.47
2023-02-15T21:29:43.449Z,8.40
2023-02-15T21:32:10.958Z,8.37
2023-02-15T21:34:39.921Z,8.35
2023-02-15T21:37:27.590Z,8.41
2023-02-15T21:39:55.149Z,8.37
2023-02-15T21:42:41.076Z,8.33
2023-02-15T21:45:36.803Z,8.32
2023-02-15T21:48:04.393Z,8.23
2023-02-15T21:50:50.794Z,8.23
2023-02-15T21:53:27.624Z,8.13
2023-02-15T21:55:57.006Z,8.11
2023-02-15T21:58:28.119Z,8.05
2023-02-15T22:00:57.898Z,7.98
2023-02-15T22:03:30.555Z,7.96
2023-02-15T22:05:57.990Z,7.95
2023-02-15T22:08:25.272Z,7.98
2023-02-15T22:10:55.114Z,7.93
2023-02-15T22:13:33.914Z,7.95
2023-02-15T22:16:03.244Z,7.96
2023-02-15T22:18:34.072Z,7.93
2023-02-15T22:21:04.396Z,7.82
2023-02-15T22:23:31.956Z,7.84
2023-02-15T22:26:04.812Z,7.75
2023-02-15T22:28:51.173Z,7.74
2023-02-15T22:31:21.420Z,7.66
2023-02-15T22:33:51.766Z,7.62
2023-02-15T22:36:28.241Z,7.62
2023-02-15T22:38:56.899Z,7.65
2023-02-15T22:41:30.443Z,7.63
2023-02-15T22:43:58.056Z,7.56
2023-02-15T22:46:26.275Z,7.51
2023-02-15T22:48:53.843Z,7.45
2023-02-15T22:51:23.949Z,7.48
2023-02-15T22:53:53.225Z,7.46
2023-02-15T22:56:27.492Z,7.47
2023-02-15T22:59:03.021Z,7.51
2023-02-15T23:01:32.363Z,7.50
2023-02-15T23:04:02.825Z,7.34
2023-02-15T23:06:31.924Z,7.26
2023-02-15T23:09:00.688Z,7.24
2023-02-15T23:11:28.872Z,7.26
2023-02-15T23:13:56.451Z,7.38
2023-02-15T23:16:23.873Z,7.42
2023-02-15T23:18:51.277Z,7.48
2023-02-15T23:21:33.497Z,7.43
2023-02-15T23:24:19.273Z,7.39
2023-02-15T23:26:47.513Z,7.34
2023-02-15T23:29:19.003Z,7.32
2023-02-15T23:31:49.494Z,7.35
2023-02-15T23:34:27.605Z,7.33
2023-02-15T23:36:55.904Z,7.23
2023-02-15T23:39:47.017Z,7.15
2023-02-15T23:42:17.131Z,7.22
2023-02-15T23:44:46.054Z,7.25
2023-02-15T23:47:43.170Z,7.23
2023-02-15T23:50:17.619Z,7.17
2023-02-15T23:52:44.989Z,7.11
2023-02-15T23:55:13.555Z,7.10
2023-02-15T23:57:42.473Z,7.07
